Observations for EAST MIDLANDS, United Kingdom (EGNX)

EGNX 220820Z 28007KT 9999 FEW018 SCT043 18/14 Q1016 
EGNX 220750Z 27008KT 9999 SCT017 SCT030 17/13 Q1016 
EGNX 220650Z 26006KT 9999 SCT019 BKN031 16/13 Q1016 
EGNX 220620Z 24008KT 9999 FEW027 BKN030 16/13 Q1016 
EGNX 220550Z 26009KT 9999 FEW027 BKN030 16/13 Q1016 
EGNX 220520Z 26007KT 9999 SCT042 16/13 Q1015
EGNX 220450Z 25007KT 9999 FEW049 15/13 Q1015
EGNX 220420Z 26007KT CAVOK 15/12 Q1015  
EGNX 220350Z 26007KT CAVOK 15/12 Q1015  
EGNX 220320Z 26007KT CAVOK 15/12 Q1015  
EGNX 220250Z 26009KT CAVOK 14/12 Q1015  
EGNX 220220Z 27008KT CAVOK 14/12 Q1015  
EGNX 220150Z 27007KT CAVOK 15/12 Q1015  
EGNX 220120Z 27009KT CAVOK 15/13 Q1015  
EGNX 220050Z 26008KT CAVOK 15/13 Q1015  
EGNX 220020Z 28009KT CAVOK 15/13 Q1015  
EGNX 212320Z 31007KT CAVOK 16/13 Q1016  
EGNX 212250Z 30007KT CAVOK 16/14 Q1016  
EGNX 212220Z 30006KT CAVOK 16/14 Q1015  
EGNX 212150Z 31006KT 9999 FEW032 17/14 Q1015
EGNX 212120Z 31006KT CAVOK 17/14 Q1015  
EGNX 212050Z 31006KT CAVOK 18/14 Q1015  
EGNX 212020Z 26006KT CAVOK 19/13 Q1015  
EGNX 211950Z 27005KT 9999 FEW048 20/14 Q1015
EGNX 211920Z 28007KT 9999 FEW048 20/13 Q1014
EGNX 211850Z 28009KT CAVOK 21/13 Q1014  
EGNX 211820Z 28009KT 9999 FEW048 22/13 Q1014
EGNX 211750Z 27008KT 9999 SCT045 22/13 Q1014
EGNX 211720Z 30007KT 270V330 9999 BKN043 22/14 Q1014
EGNX 211650Z 31010KT 280V340 9999 BKN036 22/14 Q1014
EGNX 211620Z 30008KT 9999 FEW030 SCT038 22/13 Q1014 
EGNX 211550Z 29009KT 9999 SCT047 23/14 Q1014
EGNX 211520Z 29011KT 9999 BKN036 23/14 Q1014
EGNX 211450Z 30010KT 9999 BKN043 23/14 Q1014
EGNX 211420Z 29010KT 240V310 9999 BKN039 23/13 Q1014
EGNX 211350Z 26010KT 220V290 9999 BKN040 23/12 Q1014
EGNX 211320Z 26011KT 220V290 9999 BKN037 23/12 Q1014
EGNX 211250Z 29006KT 250V330 9999 SCT035 22/13 Q1014
EGNX 211050Z VRB05KT 9999 SCT028 22/13 Q1014
EGNX 211020Z VRB05KT 9999 SCT025 21/13 Q1014
EGNX 210950Z 28007KT 240V330 9999 SCT023 19/13 Q1014
EGNX 210920Z 29006KT 250V350 9999 SCT021 19/13 Q1014
EGNX 210850Z 29006KT 250V350 9999 SCT020 19/13 Q1015
EGNX 210750Z VRB02KT 9999 FEW020 17/13 Q1014